Time;durP1;ratioP1;P1;durP2;ratioP2;P2;SDS_P1;SDS_P2;PMS_P1;PMS_P2;Temp;Humidity;BMP_temperature;BMP_pressure;BME280_temperature;BME280_humidity;BME280_pressure;Samples;Min_cycle;Max_cycle;Signal;HPM_P1;HPM_P2
2022/06/25 00:01:13;;;;;;;13.98;12.55;;;18.20;99.90;;;;;;5045640;28;20044;-72
2022/06/25 00:03:39;;;;;;;12.77;11.68;;;18.20;99.90;;;;;;5073473;28;20059;-72
2022/06/25 00:06:06;;;;;;;12.73;11.52;;;18.20;99.90;;;;;;5068505;28;20106;-72
2022/06/25 00:08:33;;;;;;;12.75;11.55;;;18.20;99.90;;;;;;5060309;28;20056;-72
2022/06/25 00:10:59;;;;;;;12.23;11.02;;;18.20;99.90;;;;;;5043015;28;20045;-72
2022/06/25 00:13:25;;;;;;;13.57;11.63;;;18.20;99.90;;;;;;5020776;28;20170;-73
2022/06/25 00:15:51;;;;;;;12.57;10.75;;;18.10;99.90;;;;;;5035514;28;20090;-72
2022/06/25 00:18:16;;;;;;;11.77;10.52;;;18.10;99.90;;;;;;5022885;28;20044;-72
2022/06/25 00:20:44;;;;;;;12.38;11.00;;;18.10;99.90;;;;;;5072512;28;20045;-72
2022/06/25 00:23:10;;;;;;;12.50;10.18;;;18.10;99.90;;;;;;5063375;28;20044;-72
2022/06/25 00:25:36;;;;;;;11.57;10.48;;;18.10;99.90;;;;;;5040097;28;20098;-72
2022/06/25 00:28:02;;;;;;;11.75;10.55;;;18.10;99.90;;;;;;5043106;28;20084;-72
2022/06/25 00:30:28;;;;;;;12.32;10.23;;;18.10;99.90;;;;;;5054212;28;20045;-73
2022/06/25 00:32:54;;;;;;;13.38;12.07;;;18.00;99.90;;;;;;5053449;28;20040;-73
2022/06/25 00:35:20;;;;;;;11.90;10.80;;;18.00;99.90;;;;;;5038275;28;20427;-76
2022/06/25 00:37:46;;;;;;;14.13;11.55;;;18.00;99.90;;;;;;5046482;28;20052;-74
2022/06/25 00:40:12;;;;;;;12.55;11.35;;;18.00;99.90;;;;;;5039677;28;20060;-74
2022/06/25 00:42:44;;;;;;;12.85;11.55;;;18.00;99.90;;;;;;5072929;28;20104;-73
2022/06/25 00:45:10;;;;;;;12.23;11.05;;;18.00;99.90;;;;;;5067393;28;20059;-72
2022/06/25 00:47:36;;;;;;;13.15;10.98;;;18.00;99.90;;;;;;5052228;28;20056;-73
2022/06/25 00:50:02;;;;;;;12.30;10.95;;;17.90;99.90;;;;;;5033426;28;20425;-73
2022/06/25 00:52:32;;;;;;;12.45;11.18;;;17.90;99.90;;;;;;5034867;28;20185;-73
2022/06/25 00:55:12;;;;;;;13.43;12.13;;;17.90;99.90;;;;;;5045790;28;20055;-74
2022/06/25 00:57:42;;;;;;;12.52;11.32;;;17.90;99.90;;;;;;5053742;28;20094;-73
2022/06/25 01:00:14;;;;;;;13.05;11.68;;;17.90;99.90;;;;;;5038309;28;20112;-72
2022/06/25 01:02:40;;;;;;;;;;;17.80;99.90;;;;;;5064815;28;20122;-73
2022/06/25 01:05:08;;;;;;;14.60;11.52;;;17.80;99.90;;;;;;5053205;28;19924;-73
2022/06/25 01:07:35;;;;;;;13.52;12.23;;;17.70;99.90;;;;;;5058622;28;20051;-73
2022/06/25 01:10:02;;;;;;;13.65;12.35;;;17.70;99.90;;;;;;5065834;28;20064;-72
2022/06/25 01:12:27;;;;;;;13.68;12.35;;;17.70;99.90;;;;;;5045164;28;20063;-73
2022/06/25 01:15:04;;;;;;;14.52;12.88;;;17.70;99.90;;;;;;5039365;28;20829;-73
2022/06/25 01:17:30;;;;;;;14.00;12.32;;;17.70;99.90;;;;;;5040652;28;20041;-73
2022/06/25 01:19:56;;;;;;;14.05;12.07;;;17.60;99.90;;;;;;5051588;28;20127;-72
2022/06/25 01:22:21;;;;;;;13.23;11.93;;;17.60;99.90;;;;;;5038937;28;20112;-73
2022/06/25 01:24:47;;;;;;;14.70;12.88;;;17.60;99.90;;;;;;5054161;28;20052;-73
2022/06/25 01:27:16;;;;;;;14.50;13.02;;;17.50;99.90;;;;;;5055775;28;20056;-73
2022/06/25 01:29:42;;;;;;;14.90;12.75;;;17.60;99.90;;;;;;5046929;28;20083;-73
2022/06/25 01:32:10;;;;;;;14.38;12.88;;;17.50;99.90;;;;;;5037253;28;20078;-73
2022/06/25 01:34:36;;;;;;;14.23;12.82;;;17.50;99.90;;;;;;5039953;28;20041;-73
2022/06/25 01:37:02;;;;;;;14.13;12.80;;;17.50;99.90;;;;;;5055276;28;20127;-73
2022/06/25 01:39:27;;;;;;;13.95;12.55;;;17.50;99.90;;;;;;5033313;28;20048;-74
2022/06/25 01:41:53;;;;;;;13.50;12.20;;;17.50;99.90;;;;;;5024802;28;20032;-72
2022/06/25 01:44:19;;;;;;;14.02;12.65;;;17.50;99.90;;;;;;5058339;28;20052;-72
2022/06/25 01:46:44;;;;;;;15.63;12.50;;;17.40;99.90;;;;;;5016456;28;20068;-72
2022/06/25 01:49:10;;;;;;;13.70;12.05;;;17.40;99.90;;;;;;5034109;28;20044;-72
2022/06/25 01:51:36;;;;;;;13.60;12.30;;;17.40;99.90;;;;;;5043787;28;20055;-72
2022/06/25 01:54:02;;;;;;;14.57;13.07;;;17.40;99.90;;;;;;5025339;28;20107;-73
2022/06/25 01:56:27;;;;;;;13.27;11.93;;;17.40;99.90;;;;;;5043151;28;20047;-73
2022/06/25 01:58:53;;;;;;;15.98;13.18;;;17.30;99.90;;;;;;5058941;28;20044;-72
2022/06/25 02:01:19;;;;;;;14.40;13.00;;;17.30;99.90;;;;;;5041511;28;20041;-73
2022/06/25 02:03:44;;;;;;;15.60;13.38;;;17.30;99.90;;;;;;5029463;28;20121;-73
2022/06/25 02:06:10;;;;;;;16.63;14.13;;;17.30;99.90;;;;;;5046505;28;20068;-73
2022/06/25 02:08:37;;;;;;;15.00;13.40;;;17.30;99.90;;;;;;5075361;28;20052;-72
2022/06/25 02:11:06;;;;;;;14.80;13.30;;;17.20;99.90;;;;;;5041622;28;20054;-72
2022/06/25 02:13:32;;;;;;;18.70;15.60;;;17.20;99.90;;;;;;5057629;28;20112;-73
2022/06/25 02:15:58;;;;;;;16.48;14.70;;;17.20;99.90;;;;;;5070136;28;20076;-73
2022/06/25 02:18:24;;;;;;;16.58;14.80;;;17.20;99.90;;;;;;5040603;28;20051;-73
2022/06/25 02:20:51;;;;;;;17.05;15.43;;;17.20;99.90;;;;;;5039464;28;20423;-73
2022/06/25 02:23:18;;;;;;;19.17;15.90;;;17.10;99.90;;;;;;5042050;28;20041;-73
2022/06/25 02:25:44;;;;;;;17.27;15.43;;;17.10;99.90;;;;;;5049226;28;20049;-73
2022/06/25 02:28:10;;;;;;;18.33;15.68;;;17.10;99.90;;;;;;5066080;28;20060;-73
2022/06/25 02:30:36;;;;;;;18.77;14.77;;;17.10;99.90;;;;;;5057667;28;20058;-73
2022/06/25 02:33:03;;;;;;;16.58;14.88;;;17.10;99.90;;;;;;5057258;28;20045;-73
2022/06/25 02:35:29;;;;;;;18.15;16.27;;;17.10;99.90;;;;;;5055122;28;20052;-72
2022/06/25 02:37:55;;;;;;;18.98;15.40;;;17.10;99.90;;;;;;5054786;28;20040;-73
2022/06/25 02:40:21;;;;;;;19.30;16.10;;;17.10;99.90;;;;;;5062669;28;20041;-72
2022/06/25 02:42:47;;;;;;;20.17;17.35;;;17.10;99.90;;;;;;5042234;28;20418;-72
2022/06/25 02:45:13;;;;;;;19.08;17.02;;;17.10;99.90;;;;;;5063766;28;20039;-73
2022/06/25 02:47:39;;;;;;;19.15;16.88;;;17.10;99.90;;;;;;5049599;28;20435;-72
2022/06/25 02:50:06;;;;;;;19.83;17.73;;;17.00;99.90;;;;;;5041376;28;20044;-74
2022/06/25 02:52:31;;;;;;;19.83;17.73;;;17.00;99.90;;;;;;5052713;28;20164;-73
2022/06/25 02:54:57;;;;;;;20.23;18.02;;;17.00;99.90;;;;;;5068494;28;20080;-73
2022/06/25 03:00:08;;;;;;;20.58;18.25;;;17.00;99.90;;;;;;5067248;28;20049;-73
2022/06/25 03:02:34;;;;;;;22.33;18.60;;;17.00;99.90;;;;;;5024908;28;20146;-72
2022/06/25 03:05:00;;;;;;;20.02;17.48;;;17.00;99.90;;;;;;5057651;28;20045;-72
2022/06/25 03:07:26;;;;;;;20.63;18.42;;;17.00;99.90;;;;;;5054281;28;20464;-74
2022/06/25 03:09:52;;;;;;;20.42;18.33;;;17.00;99.90;;;;;;5054679;28;20040;-73
2022/06/25 03:12:17;;;;;;;21.35;18.48;;;17.00;99.90;;;;;;5040138;28;20059;-72
2022/06/25 03:14:43;;;;;;;21.00;18.77;;;17.00;99.90;;;;;;5038998;28;20108;-72
2022/06/25 03:17:09;;;;;;;21.58;19.27;;;16.90;99.90;;;;;;5056200;28;20108;-73
2022/06/25 03:19:36;;;;;;;21.85;18.60;;;16.90;99.90;;;;;;5042360;28;20052;-72
2022/06/25 03:22:02;;;;;;;23.00;19.52;;;16.90;99.90;;;;;;5072175;28;20049;-73
2022/06/25 03:24:28;;;;;;;21.60;19.35;;;16.90;99.90;;;;;;5063847;28;20508;-74
2022/06/25 03:26:53;;;;;;;21.38;18.77;;;16.90;99.90;;;;;;5040081;28;20123;-73
2022/06/25 03:29:19;;;;;;;22.00;18.52;;;16.90;99.90;;;;;;5067698;28;20088;-73
2022/06/25 03:31:45;;;;;;;20.30;18.15;;;16.90;99.90;;;;;;5032662;28;20151;-72
2022/06/25 03:34:11;;;;;;;20.85;18.65;;;16.90;99.90;;;;;;5067237;28;20040;-73
2022/06/25 03:36:37;;;;;;;20.73;18.52;;;16.90;99.90;;;;;;5038960;28;20082;-72
2022/06/25 03:39:03;;;;;;;21.10;18.90;;;16.90;99.90;;;;;;5070705;28;20101;-73
2022/06/25 03:41:32;;;;;;;20.70;18.55;;;17.00;99.90;;;;;;5051477;28;20048;-72
2022/06/25 03:43:59;;;;;;;19.45;17.48;;;17.00;99.90;;;;;;5035818;28;20941;-73
2022/06/25 03:46:25;;;;;;;19.70;17.45;;;17.10;99.90;;;;;;5056547;28;20500;-72
2022/06/25 03:48:51;;;;;;;20.25;18.00;;;17.10;99.90;;;;;;5057770;28;20112;-73
2022/06/25 03:51:17;;;;;;;19.63;17.52;;;17.10;99.90;;;;;;5037985;28;20068;-73
2022/06/25 03:53:42;;;;;;;19.75;17.65;;;17.20;99.90;;;;;;5031338;28;20078;-73
2022/06/25 03:56:08;;;;;;;19.60;16.70;;;17.20;99.90;;;;;;5073546;28;20052;-72
2022/06/25 03:58:34;;;;;;;19.75;17.08;;;17.20;99.90;;;;;;5033012;28;20055;-74
2022/06/25 04:01:00;;;;;;;19.85;17.33;;;17.10;99.90;;;;;;5027746;28;20442;-73
2022/06/25 04:03:25;;;;;;;18.88;16.92;;;17.20;99.90;;;;;;5037902;28;20045;-73
2022/06/25 04:05:51;;;;;;;18.60;16.20;;;17.10;99.90;;;;;;5023956;28;20052;-73
2022/06/25 04:08:17;;;;;;;19.17;17.20;;;17.10;99.90;;;;;;5037873;28;20037;-72
2022/06/25 04:10:43;;;;;;;18.30;16.42;;;17.10;99.90;;;;;;5046738;28;20044;-72
2022/06/25 04:13:09;;;;;;;18.40;16.27;;;17.10;99.90;;;;;;5055509;28;20049;-72
2022/06/25 04:15:35;;;;;;;18.88;16.85;;;17.10;99.90;;;;;;5050928;28;20033;-73
2022/06/25 04:18:02;;;;;;;18.52;16.13;;;17.10;99.90;;;;;;5068657;28;20109;-72
2022/06/25 04:20:28;;;;;;;17.77;15.98;;;17.10;99.90;;;;;;5038243;28;20090;-73
2022/06/25 04:22:53;;;;;;;19.48;16.70;;;17.20;99.90;;;;;;5037479;28;20048;-73
2022/06/25 04:25:19;;;;;;;22.88;16.52;;;17.20;99.90;;;;;;5030214;28;20041;-73
2022/06/25 04:30:29;;;;;;;19.98;16.58;;;17.20;99.90;;;;;;5039710;28;20485;-73
2022/06/25 04:32:55;;;;;;;17.77;15.88;;;17.20;99.90;;;;;;5052788;28;20059;-72
2022/06/25 04:35:21;;;;;;;20.83;16.10;;;17.20;99.90;;;;;;5041226;28;20052;-73
2022/06/25 04:37:46;;;;;;;17.08;15.27;;;17.20;99.90;;;;;;5034311;28;20052;-73
2022/06/25 04:40:13;;;;;;;17.77;15.75;;;17.30;99.90;;;;;;5053534;28;20041;-72
2022/06/25 04:42:38;;;;;;;19.08;16.02;;;17.30;99.90;;;;;;5049214;28;20139;-72
2022/06/25 04:45:05;;;;;;;16.45;14.45;;;17.30;99.90;;;;;;5023437;28;20507;-72
2022/06/25 04:47:30;;;;;;;18.35;15.57;;;17.40;99.90;;;;;;5028671;28;20427;-72
2022/06/25 04:49:56;;;;;;;18.73;15.73;;;17.40;99.90;;;;;;5037979;28;20048;-72
2022/06/25 04:52:22;;;;;;;15.98;14.27;;;17.50;99.90;;;;;;5023949;28;20048;-73
2022/06/25 04:54:47;;;;;;;17.98;15.05;;;17.50;99.90;;;;;;5029851;28;20044;-73
2022/06/25 04:57:13;;;;;;;16.75;14.85;;;17.50;99.90;;;;;;5033648;28;20052;-72
2022/06/25 04:59:39;;;;;;;16.50;14.45;;;17.60;99.90;;;;;;5043077;28;20044;-70
2022/06/25 05:02:04;;;;;;;15.82;14.27;;;17.60;99.90;;;;;;5059970;28;20075;-70
2022/06/25 05:04:30;;;;;;;16.45;14.60;;;17.60;99.90;;;;;;5043106;28;20053;-72
2022/06/25 05:06:56;;;;;;;16.58;14.00;;;17.60;99.90;;;;;;5047740;28;20515;-74
2022/06/25 05:09:21;;;;;;;15.80;13.32;;;17.60;99.90;;;;;;5035790;28;20511;-75
2022/06/25 05:11:47;;;;;;;15.55;12.60;;;17.70;99.90;;;;;;5033426;28;20056;-72
2022/06/25 05:14:13;;;;;;;15.55;13.02;;;17.70;99.90;;;;;;5056685;28;20053;-72
2022/06/25 05:16:38;;;;;;;14.80;12.90;;;17.80;99.90;;;;;;5038347;28;20040;-71
2022/06/25 05:19:04;;;;;;;14.93;13.10;;;17.70;99.90;;;;;;5066851;28;20049;-71
2022/06/25 05:21:30;;;;;;;15.07;11.90;;;17.80;99.90;;;;;;5021534;28;20143;-72
2022/06/25 05:23:55;;;;;;;14.38;12.77;;;17.80;99.90;;;;;;5070936;28;20061;-72
2022/06/25 05:26:21;;;;;;;13.63;11.80;;;17.90;99.90;;;;;;5042550;28;20079;-72
2022/06/25 05:28:47;;;;;;;13.38;12.07;;;17.90;99.90;;;;;;5038371;28;20061;-72
2022/06/25 05:31:12;;;;;;;13.25;11.80;;;17.90;99.90;;;;;;5049701;28;20064;-74
2022/06/25 05:33:38;;;;;;;12.73;11.43;;;17.90;99.90;;;;;;5067055;28;20490;-77
2022/06/25 05:36:04;;;;;;;12.77;11.38;;;18.00;99.90;;;;;;5041534;28;20122;-76
2022/06/25 05:38:30;;;;;;;12.60;11.30;;;18.00;99.90;;;;;;5044811;28;20102;-75
2022/06/25 05:40:55;;;;;;;15.55;11.95;;;18.00;99.90;;;;;;5042630;28;20041;-74
2022/06/25 05:43:22;;;;;;;13.40;11.57;;;18.10;99.90;;;;;;5065603;28;20048;-75
2022/06/25 05:45:48;;;;;;;14.63;11.95;;;18.20;99.90;;;;;;5066098;28;20055;-75
2022/06/25 05:48:13;;;;;;;14.10;10.85;;;18.20;99.90;;;;;;5066866;28;20135;-75
2022/06/25 05:50:39;;;;;;;12.93;11.48;;;18.30;99.90;;;;;;5051558;28;20381;-75
2022/06/25 05:53:05;;;;;;;13.10;11.73;;;18.40;99.90;;;;;;5057750;28;20036;-74
2022/06/25 05:55:31;;;;;;;12.05;10.85;;;18.50;99.90;;;;;;5073696;28;20072;-77
2022/06/25 05:57:58;;;;;;;11.95;10.75;;;18.60;99.90;;;;;;5056442;28;20123;-77
2022/06/25 06:00:26;;;;;;;12.80;11.43;;;18.70;99.90;;;;;;5049306;28;20048;-76
2022/06/25 06:02:52;;;;;;;11.93;10.52;;;18.80;99.90;;;;;;5072016;28;20486;-77
2022/06/25 06:05:17;;;;;;;12.18;10.88;;;19.00;99.90;;;;;;5056295;28;20053;-76
2022/06/25 06:07:43;;;;;;;12.55;11.20;;;19.10;99.90;;;;;;5051820;28;20478;-76
2022/06/25 06:10:09;;;;;;;14.18;9.82;;;19.30;99.90;;;;;;5020656;28;20635;-77
2022/06/25 06:12:35;;;;;;;10.68;9.35;;;19.40;99.90;;;;;;5057554;28;20071;-76
2022/06/25 06:15:01;;;;;;;11.13;9.38;;;19.60;99.90;;;;;;5050367;28;20080;-76
2022/06/25 06:17:27;;;;;;;12.30;8.98;;;19.70;99.90;;;;;;5021062;28;20057;-76
2022/06/25 06:19:53;;;;;;;11.25;8.50;;;19.90;99.90;;;;;;5018489;28;20056;-76
2022/06/25 06:22:19;;;;;;;9.75;8.75;;;20.00;99.90;;;;;;5037998;28;20048;-76
2022/06/25 06:24:44;;;;;;;10.60;8.57;;;20.10;99.90;;;;;;5052959;28;20048;-78
2022/06/25 06:27:10;;;;;;;8.55;7.72;;;20.10;99.90;;;;;;5017787;28;20068;-78
2022/06/25 06:29:36;;;;;;;10.00;8.43;;;20.20;99.90;;;;;;5052417;28;20048;-78
2022/06/25 06:32:01;;;;;;;8.77;7.88;;;20.20;99.90;;;;;;5030973;28;20044;-78
2022/06/25 06:34:27;;;;;;;9.63;7.45;;;20.30;99.90;;;;;;5051258;28;20041;-78
2022/06/25 06:36:53;;;;;;;11.65;7.63;;;20.30;99.90;;;;;;5037339;28;20048;-79
2022/06/25 06:39:19;;;;;;;8.10;7.30;;;20.50;99.90;;;;;;5067713;28;20044;-77
2022/06/25 06:41:44;;;;;;;10.48;7.75;;;20.60;99.90;;;;;;5037145;28;20457;-79
2022/06/25 06:44:10;;;;;;;11.73;8.75;;;20.70;99.90;;;;;;5067477;28;20253;-75
2022/06/25 06:46:36;;;;;;;9.00;7.85;;;20.80;99.90;;;;;;5066973;28;20589;-78
2022/06/25 06:49:01;;;;;;;11.00;8.15;;;20.90;99.90;;;;;;5040750;28;20037;-77
2022/06/25 06:51:27;;;;;;;9.95;7.72;;;21.00;99.90;;;;;;5053713;28;20264;-78
2022/06/25 06:53:53;;;;;;;10.35;6.95;;;21.10;99.90;;;;;;5023771;28;20123;-79
2022/06/25 06:56:18;;;;;;;7.10;6.40;;;21.30;99.90;;;;;;5015253;28;20110;-78
2022/06/25 06:58:44;;;;;;;7.07;6.38;;;21.40;99.90;;;;;;5065664;28;20075;-78
2022/06/25 07:01:10;;;;;;;8.18;6.47;;;21.40;99.90;;;;;;5017967;28;20426;-79
2022/06/25 07:03:35;;;;;;;8.82;6.10;;;21.40;99.90;;;;;;5023479;28;20052;-78
2022/06/25 07:06:01;;;;;;;8.40;6.40;;;21.40;99.90;;;;;;5052743;28;20594;-77
2022/06/25 07:08:27;;;;;;;8.63;6.28;;;21.60;99.90;;;;;;5036250;28;20624;-78
2022/06/25 07:10:53;;;;;;;6.45;5.80;;;21.60;99.90;;;;;;5007362;28;20041;-77
2022/06/25 07:13:18;;;;;;;6.22;5.30;;;21.80;99.90;;;;;;5036894;28;20056;-78
2022/06/25 07:15:44;;;;;;;7.70;5.43;;;21.90;99.90;;;;;;5064609;28;20041;-78
2022/06/25 07:18:10;;;;;;;6.82;5.95;;;21.90;99.90;;;;;;5034102;28;20048;-78
2022/06/25 07:20:36;;;;;;;7.75;4.82;;;21.90;99.90;;;;;;5048040;28;20106;-78
2022/06/25 07:23:02;;;;;;;5.32;4.80;;;22.00;99.90;;;;;;5030954;28;20029;-78
2022/06/25 07:25:27;;;;;;;6.35;4.80;;;22.10;99.90;;;;;;5054203;28;20040;-78
2022/06/25 07:27:53;;;;;;;6.50;4.80;;;22.30;99.90;;;;;;5049800;28;20048;-78
2022/06/25 07:30:19;;;;;;;7.03;4.97;;;22.40;99.90;;;;;;5039294;28;20063;-78
2022/06/25 07:32:45;;;;;;;10.27;4.95;;;22.40;99.90;;;;;;5020516;28;20056;-78
2022/06/25 07:35:10;;;;;;;5.43;4.40;;;22.40;99.90;;;;;;5036056;28;20041;-78
2022/06/25 07:37:36;;;;;;;6.47;4.10;;;22.50;99.90;;;;;;5067028;28;20040;-78
2022/06/25 07:40:03;;;;;;;6.20;4.13;;;22.50;99.90;;;;;;5061942;28;20310;-78
2022/06/25 07:42:31;;;;;;;6.05;3.88;;;22.50;99.90;;;;;;5037101;28;20045;-78
2022/06/25 07:44:58;;;;;;;6.78;3.50;;;22.60;99.90;;;;;;5045031;28;20087;-78
2022/06/25 07:47:24;;;;;;;6.25;3.65;;;22.70;99.90;;;;;;5037276;28;20037;-77
2022/06/25 07:52:33;;;;;;;5.05;4.10;;;22.90;99.90;;;;;;5051425;28;20044;-79
2022/06/25 07:55:01;;;;;;;6.55;3.55;;;23.00;99.90;;;;;;5035878;28;20063;-78
2022/06/25 07:57:26;;;;;;;5.95;3.30;;;23.00;99.90;;;;;;5049221;28;20040;-77
2022/06/25 07:59:52;;;;;;;6.75;3.90;;;23.00;99.90;;;;;;5037567;28;20040;-78
2022/06/25 08:02:18;;;;;;;6.03;3.28;;;23.10;99.90;;;;;;5044582;28;20055;-78
2022/06/25 08:04:43;;;;;;;5.70;3.72;;;22.90;99.90;;;;;;5039353;28;20048;-78
2022/06/25 08:07:09;;;;;;;3.45;3.15;;;22.80;99.90;;;;;;5011572;28;20056;-78
2022/06/25 08:09:35;;;;;;;6.63;3.60;;;22.80;99.90;;;;;;5037338;28;20044;-78
2022/06/25 08:12:00;;;;;;;4.78;3.30;;;22.90;99.90;;;;;;5015976;28;20056;-77
2022/06/25 08:14:26;;;;;;;7.60;3.78;;;23.10;99.90;;;;;;5038759;28;20157;-78
2022/06/25 08:16:52;;;;;;;4.20;3.80;;;23.20;99.90;;;;;;5053997;28;20095;-77
2022/06/25 08:19:17;;;;;;;6.72;2.97;;;23.40;99.90;;;;;;5030944;28;20841;-78
2022/06/25 08:21:43;;;;;;;4.93;2.88;;;23.60;99.90;;;;;;5033571;28;20510;-77
2022/06/25 08:24:09;;;;;;;6.57;2.80;;;23.70;99.90;;;;;;5030619;28;20597;-77
2022/06/25 08:26:35;;;;;;;6.15;2.97;;;23.70;99.90;;;;;;5036698;28;20078;-78
2022/06/25 08:29:00;;;;;;;5.47;3.47;;;23.70;99.90;;;;;;5019646;28;20067;-78
2022/06/25 08:31:26;;;;;;;6.45;2.92;;;23.70;99.90;;;;;;5033098;28;20037;-77
2022/06/25 08:33:52;;;;;;;3.60;2.97;;;23.70;99.90;;;;;;5033547;28;20044;-78
2022/06/25 08:36:18;;;;;;;3.95;2.70;;;23.70;99.90;;;;;;5047045;28;20044;-78
2022/06/25 08:38:44;;;;;;;5.78;2.75;;;23.50;99.90;;;;;;5038655;28;20044;-78
2022/06/25 08:41:09;;;;;;;5.90;3.28;;;23.50;99.90;;;;;;5034532;28;20053;-78
2022/06/25 08:43:36;;;;;;;3.85;2.80;;;23.40;99.90;;;;;;5036528;28;20586;-78
2022/06/25 08:46:03;;;;;;;3.65;3.03;;;23.40;99.90;;;;;;5022733;28;20098;-78
2022/06/25 08:48:35;;;;;;;4.25;2.63;;;23.50;99.90;;;;;;5049257;28;20395;-78
2022/06/25 08:51:04;;;;;;;4.63;2.60;;;23.70;99.90;;;;;;5055375;28;20144;-78
2022/06/25 08:53:34;;;;;;;4.25;2.88;;;23.70;99.90;;;;;;5055939;28;20048;-78
2022/06/25 08:56:01;;;;;;;4.30;2.60;;;23.70;99.90;;;;;;5039065;28;20052;-78
2022/06/25 08:58:27;;;;;;;5.18;2.80;;;23.60;99.90;;;;;;5068682;28;20036;-78
2022/06/25 09:00:53;;;;;;;4.47;2.70;;;23.50;99.90;;;;;;5036077;28;20182;-79
2022/06/25 09:03:19;;;;;;;4.20;2.47;;;23.40;99.90;;;;;;5034993;28;20068;-78
2022/06/25 09:05:46;;;;;;;4.97;3.22;;;23.60;99.90;;;;;;5039026;28;20301;-78
2022/06/25 09:08:14;;;;;;;4.53;2.50;;;23.80;99.90;;;;;;5037356;28;20036;-78
2022/06/25 09:10:44;;;;;;;5.88;2.65;;;23.80;99.90;;;;;;5053205;28;20037;-77
2022/06/25 09:13:11;;;;;;;5.45;2.88;;;23.90;99.90;;;;;;5049552;28;20410;-77
2022/06/25 09:15:39;;;;;;;3.20;2.60;;;24.00;99.90;;;;;;5037528;28;20105;-77
2022/06/25 09:18:10;;;;;;;6.07;2.92;;;23.90;99.90;;;;;;5052403;28;20040;-78
2022/06/25 09:20:55;;;;;;;4.10;2.40;;;23.90;99.90;;;;;;5046354;28;20077;-78
2022/06/25 09:23:21;;;;;;;2.50;2.30;;;24.00;99.90;;;;;;5067229;28;20127;-78
2022/06/25 09:26:06;;;;;;;3.45;2.13;;;24.10;99.90;;;;;;5019773;28;20068;-78
2022/06/25 09:28:40;;;;;;;4.95;2.20;;;24.10;99.90;;;;;;5049945;28;20063;-77
2022/06/25 09:31:07;;;;;;;4.07;2.10;;;24.10;99.90;;;;;;5046129;28;20048;-78
2022/06/25 09:33:35;;;;;;;4.22;2.03;;;24.00;99.90;;;;;;5042770;28;20052;-78
2022/06/25 09:36:02;;;;;;;4.28;2.00;;;24.00;99.90;;;;;;5043053;28;20053;-79
2022/06/25 09:38:28;;;;;;;2.33;1.88;;;24.10;99.90;;;;;;5030889;28;20052;-78
2022/06/25 09:40:59;;;;;;;4.43;2.22;;;24.30;99.90;;;;;;5036927;28;20041;-78
2022/06/25 09:43:28;;;;;;;5.85;2.42;;;24.40;99.90;;;;;;5055694;28;20040;-79
2022/06/25 09:45:57;;;;;;;3.95;2.33;;;24.50;99.90;;;;;;5054799;28;20048;-78
2022/06/25 09:48:27;;;;;;;3.55;2.25;;;24.50;99.90;;;;;;5071432;28;20479;-78
2022/06/25 09:51:23;;;;;;;4.80;2.50;;;24.30;99.90;;;;;;5072271;28;20045;-78
2022/06/25 09:53:51;;;;;;;4.03;2.17;;;24.20;99.90;;;;;;5047062;28;20041;-78
2022/06/25 09:56:20;;;;;;;3.60;2.83;;;24.30;99.90;;;;;;5052777;28;20041;-78
2022/06/25 09:58:47;;;;;;;4.57;2.53;;;24.30;99.90;;;;;;5041068;28;20044;-78
2022/06/25 10:01:18;;;;;;;5.93;3.33;;;24.40;99.90;;;;;;5037082;28;20040;-78
2022/06/25 10:03:45;;;;;;;4.90;4.30;;;24.50;99.90;;;;;;5056183;28;20045;-78
2022/06/25 10:06:16;;;;;;;5.13;3.60;;;24.60;99.90;;;;;;5037506;28;20060;-78
2022/06/25 10:08:51;;;;;;;5.13;2.77;;;24.80;99.90;;;;;;5036643;28;20558;-78
2022/06/25 10:11:23;;;;;;;3.67;2.83;;;24.80;99.90;;;;;;5046155;28;20791;-78
2022/06/25 10:13:50;;;;;;;3.25;2.92;;;24.80;99.90;;;;;;5049946;28;20055;-78
2022/06/25 10:16:20;;;;;;;3.55;3.13;;;24.70;99.90;;;;;;5057475;28;20060;-78
2022/06/25 10:18:48;;;;;;;3.22;2.92;;;24.70;99.90;;;;;;5056493;28;20090;-78
2022/06/25 10:21:14;;;;;;;3.90;2.90;;;24.70;99.90;;;;;;5023040;28;20171;-78
2022/06/25 10:23:42;;;;;;;3.22;2.88;;;24.60;99.90;;;;;;5036167;28;20095;-78
2022/06/25 10:26:09;;;;;;;4.38;3.08;;;24.70;99.90;;;;;;5043062;28;20049;-78
2022/06/25 10:28:36;;;;;;;5.53;3.05;;;24.90;99.90;;;;;;5050175;28;20055;-77
2022/06/25 10:31:14;;;;;;;6.95;2.85;;;25.00;99.90;;;;;;5039618;28;20045;-78
2022/06/25 10:33:53;;;;;;;4.55;2.90;;;25.10;99.90;;;;;;5069308;28;20037;-78
2022/06/25 10:36:41;;;;;;;3.55;2.70;;;25.30;99.90;;;;;;5076914;28;20112;-78
2022/06/25 10:39:25;;;;;;;7.00;2.53;;;25.50;99.90;;;;;;5075533;28;20488;-79
2022/06/25 10:45:06;;;;;;;6.10;2.58;;;25.80;99.90;;;;;;5063164;28;20049;-78
2022/06/25 10:47:40;;;;;;;5.05;2.20;;;25.90;99.90;;;;;;5034040;28;20045;-78
2022/06/25 10:50:21;;;;;;;3.25;2.22;;;26.10;99.90;;;;;;5046110;28;20086;-78
2022/06/25 10:53:05;;;;;;;2.80;2.40;;;25.90;99.90;;;;;;5066752;28;20041;-78
2022/06/25 10:55:40;;;;;;;4.97;2.13;;;25.90;99.90;;;;;;5053768;28;20424;-78
2022/06/25 10:58:12;;;;;;;6.60;2.50;;;25.90;99.90;;;;;;5048809;28;20049;-78
2022/06/25 11:00:47;;;;;;;2.95;2.28;;;25.70;99.90;;;;;;5049003;28;20056;-78
2022/06/25 11:03:15;;;;;;;5.40;1.88;;;25.50;99.90;;;;;;5063349;28;20080;-78
2022/06/25 11:05:42;;;;;;;4.18;2.25;;;25.30;99.90;;;;;;5037726;28;20048;-79
2022/06/25 11:08:08;;;;;;;1.70;1.50;;;25.20;99.90;;;;;;5041056;28;20571;-78
2022/06/25 11:10:40;;;;;;;2.47;1.98;;;25.30;99.90;;;;;;5046451;28;20106;-78
2022/06/25 11:13:07;;;;;;;2.33;2.13;;;25.60;99.90;;;;;;5038167;28;20041;-78
2022/06/25 11:15:41;;;;;;;2.63;2.00;;;25.70;99.90;;;;;;5063364;28;20087;-78
2022/06/25 11:18:13;;;;;;;5.90;2.20;;;25.60;99.90;;;;;;5032517;28;20040;-79
2022/06/25 11:20:41;;;;;;;3.63;1.98;;;25.70;99.90;;;;;;5054108;28;20511;-79
2022/06/25 11:23:12;;;;;;;2.88;1.92;;;25.90;99.90;;;;;;5043745;28;20044;-76
2022/06/25 11:28:49;;;;;;;3.53;1.55;;;25.60;99.90;;;;;;5073505;28;20318;-76
2022/06/25 11:31:22;;;;;;;5.35;1.80;;;25.30;99.90;;;;;;5064014;28;20112;-76
2022/06/25 11:33:50;;;;;;;4.22;1.80;;;25.10;99.90;;;;;;5007810;28;20049;-78
2022/06/25 11:36:17;;;;;;;6.00;2.10;;;24.90;99.90;;;;;;5050437;28;20048;-78
2022/06/25 11:38:54;;;;;;;3.85;1.83;;;25.00;99.90;;;;;;5040499;28;20048;-78
2022/06/25 11:41:29;;;;;;;2.53;1.70;;;25.40;99.90;;;;;;5050713;28;20072;-78
2022/06/25 11:44:03;;;;;;;2.35;1.80;;;25.70;99.90;;;;;;5073809;28;20062;-78
2022/06/25 11:46:29;;;;;;;2.67;1.90;;;26.10;99.90;;;;;;5071971;28;20509;-78
2022/06/25 11:48:57;;;;;;;4.38;1.95;;;26.40;99.90;;;;;;5036144;28;20051;-78
2022/06/25 11:51:24;;;;;;;1.85;1.75;;;26.30;99.90;;;;;;5049884;28;20548;-78
2022/06/25 11:53:54;;;;;;;2.20;1.50;;;26.40;99.90;;;;;;5056251;28;20045;-78
2022/06/25 11:56:20;;;;;;;3.65;2.10;;;26.70;99.90;;;;;;5023151;28;20064;-78
2022/06/25 11:58:46;;;;;;;2.25;1.80;;;26.80;99.90;;;;;;5055926;28;20055;-78
2022/06/25 12:01:12;;;;;;;2.45;1.88;;;26.80;99.90;;;;;;5039412;28;20394;-78
2022/06/25 12:03:38;;;;;;;4.28;1.65;;;26.80;99.90;;;;;;5056974;28;20101;-78
2022/06/25 12:06:05;;;;;;;3.45;2.00;;;26.60;99.90;;;;;;5023141;28;20080;-78
2022/06/25 12:08:31;;;;;;;2.72;2.10;;;26.50;99.90;;;;;;5040578;28;20583;-77
2022/06/25 12:10:59;;;;;;;2.30;1.73;;;26.70;99.90;;;;;;5038128;28;20113;-78
2022/06/25 12:13:30;;;;;;;3.50;1.50;;;26.70;99.90;;;;;;5043817;28;20044;-78
2022/06/25 12:16:03;;;;;;;2.00;1.30;;;26.70;99.90;;;;;;5055886;28;20044;-78
2022/06/25 12:18:37;;;;;;;4.55;1.60;;;26.70;99.90;;;;;;5047560;28;20052;-78
2022/06/25 12:21:05;;;;;;;3.03;1.85;;;26.80;99.90;;;;;;5048756;28;20052;-78
2022/06/25 12:23:53;;;;;;;2.58;1.55;;;26.80;99.90;;;;;;5071241;28;20036;-78
2022/06/25 12:26:33;;;;;;;2.95;1.60;;;26.40;99.90;;;;;;5051858;28;20060;-77
2022/06/25 12:29:10;;;;;;;5.45;1.70;;;25.90;99.90;;;;;;5064548;28;20068;-78
2022/06/25 12:31:36;;;;;;;3.33;1.40;;;25.50;99.90;;;;;;5045789;28;20052;-78
2022/06/25 12:34:04;;;;;;;2.03;1.50;;;25.20;99.90;;;;;;5056891;28;20048;-78
2022/06/25 12:36:33;;;;;;;5.90;1.83;;;24.90;99.90;;;;;;5038571;28;20040;-77
2022/06/25 12:38:58;;;;;;;3.58;1.80;;;24.70;99.90;;;;;;5051142;28;20086;-78
2022/06/25 12:41:47;;;;;;;2.67;1.90;;;24.40;99.90;;;;;;5036345;28;20048;-78
2022/06/25 12:44:13;;;;;;;1.70;1.60;;;24.30;99.90;;;;;;5072704;28;20045;-77
2022/06/25 12:46:40;;;;;;;3.63;1.58;;;24.10;99.90;;;;;;5039693;28;20040;-78
2022/06/25 12:49:06;;;;;;;3.85;1.85;;;24.00;99.90;;;;;;5054658;28;20063;-78
2022/06/25 12:51:32;;;;;;;2.83;1.88;;;23.90;99.90;;;;;;5045849;28;20056;-78
2022/06/25 12:53:58;;;;;;;2.30;1.88;;;23.80;99.90;;;;;;5038287;28;20045;-78